sensor_id;sensor_type;location;lat;lon;timestamp;temperature;humidity
3136;DHT22;1578;47.658;9.922;2023-02-01T00:02:05;3.30;47.10
3136;DHT22;1578;47.658;9.922;2023-02-01T00:04:30;3.30;47.30
3136;DHT22;1578;47.658;9.922;2023-02-01T00:06:56;3.30;48.20
3136;DHT22;1578;47.658;9.922;2023-02-01T00:09:21;3.30;48.50
3136;DHT22;1578;47.658;9.922;2023-02-01T00:11:47;3.30;46.60
3136;DHT22;1578;47.658;9.922;2023-02-01T00:14:13;3.40;45.40
3136;DHT22;1578;47.658;9.922;2023-02-01T00:16:38;3.30;47.70
3136;DHT22;1578;47.658;9.922;2023-02-01T00:19:07;3.30;47.40
3136;DHT22;1578;47.658;9.922;2023-02-01T00:21:33;3.40;46.70
3136;DHT22;1578;47.658;9.922;2023-02-01T00:23:59;3.50;45.00
3136;DHT22;1578;47.658;9.922;2023-02-01T00:26:31;3.50;43.10
3136;DHT22;1578;47.658;9.922;2023-02-01T00:28:57;3.50;41.40
3136;DHT22;1578;47.658;9.922;2023-02-01T00:31:23;3.40;44.80
3136;DHT22;1578;47.658;9.922;2023-02-01T00:33:49;3.40;47.30
3136;DHT22;1578;47.658;9.922;2023-02-01T00:36:15;3.30;46.60
3136;DHT22;1578;47.658;9.922;2023-02-01T00:38:41;3.30;45.80
3136;DHT22;1578;47.658;9.922;2023-02-01T00:41:10;3.30;46.60
3136;DHT22;1578;47.658;9.922;2023-02-01T00:43:35;3.20;47.20
3136;DHT22;1578;47.658;9.922;2023-02-01T00:46:01;3.20;48.10
3136;DHT22;1578;47.658;9.922;2023-02-01T00:48:27;3.30;44.40
3136;DHT22;1578;47.658;9.922;2023-02-01T00:50:53;3.30;45.60
3136;DHT22;1578;47.658;9.922;2023-02-01T00:53:19;3.30;47.00
3136;DHT22;1578;47.658;9.922;2023-02-01T00:55:46;3.10;46.70
3136;DHT22;1578;47.658;9.922;2023-02-01T00:58:12;3.20;42.80
3136;DHT22;1578;47.658;9.922;2023-02-01T01:00:37;3.30;43.60
3136;DHT22;1578;47.658;9.922;2023-02-01T01:03:03;3.20;46.70
3136;DHT22;1578;47.658;9.922;2023-02-01T01:05:47;3.20;46.00
3136;DHT22;1578;47.658;9.922;2023-02-01T01:08:14;3.20;43.40
3136;DHT22;1578;47.658;9.922;2023-02-01T01:10:39;3.30;41.90
3136;DHT22;1578;47.658;9.922;2023-02-01T01:13:05;3.40;42.00
3136;DHT22;1578;47.658;9.922;2023-02-01T01:15:32;3.40;41.30
3136;DHT22;1578;47.658;9.922;2023-02-01T01:18:00;3.20;44.00
3136;DHT22;1578;47.658;9.922;2023-02-01T01:20:26;3.10;45.30
3136;DHT22;1578;47.658;9.922;2023-02-01T01:22:51;3.20;42.70
3136;DHT22;1578;47.658;9.922;2023-02-01T01:25:19;3.30;42.00
3136;DHT22;1578;47.658;9.922;2023-02-01T01:27:45;3.30;42.00
3136;DHT22;1578;47.658;9.922;2023-02-01T01:30:10;3.20;43.10
3136;DHT22;1578;47.658;9.922;2023-02-01T01:32:36;3.10;42.30
3136;DHT22;1578;47.658;9.922;2023-02-01T01:35:02;3.10;43.50
3136;DHT22;1578;47.658;9.922;2023-02-01T01:37:27;3.20;42.90
3136;DHT22;1578;47.658;9.922;2023-02-01T01:39:53;3.10;44.10
3136;DHT22;1578;47.658;9.922;2023-02-01T01:42:21;3.20;43.70
3136;DHT22;1578;47.658;9.922;2023-02-01T01:47:50;3.40;42.00
3136;DHT22;1578;47.658;9.922;2023-02-01T01:50:21;3.30;42.00
3136;DHT22;1578;47.658;9.922;2023-02-01T01:52:50;3.30;42.90
3136;DHT22;1578;47.658;9.922;2023-02-01T01:55:18;3.20;42.30
3136;DHT22;1578;47.658;9.922;2023-02-01T01:57:50;3.30;42.90
3136;DHT22;1578;47.658;9.922;2023-02-01T02:00:17;3.30;44.20
3136;DHT22;1578;47.658;9.922;2023-02-01T02:02:47;3.20;45.10
3136;DHT22;1578;47.658;9.922;2023-02-01T02:05:14;3.20;44.90
3136;DHT22;1578;47.658;9.922;2023-02-01T02:07:45;3.20;44.50
3136;DHT22;1578;47.658;9.922;2023-02-01T02:10:14;3.20;45.80
3136;DHT22;1578;47.658;9.922;2023-02-01T02:12:42;3.30;44.10
3136;DHT22;1578;47.658;9.922;2023-02-01T02:15:12;3.20;43.80
3136;DHT22;1578;47.658;9.922;2023-02-01T02:17:59;3.20;43.90
3136;DHT22;1578;47.658;9.922;2023-02-01T02:23:45;3.10;44.10
3136;DHT22;1578;47.658;9.922;2023-02-01T02:32:15;3.20;43.80
3136;DHT22;1578;47.658;9.922;2023-02-01T02:34:53;3.20;43.90
3136;DHT22;1578;47.658;9.922;2023-02-01T02:40:13;3.10;44.30
3136;DHT22;1578;47.658;9.922;2023-02-01T02:42:42;3.10;43.90
3136;DHT22;1578;47.658;9.922;2023-02-01T02:48:30;3.10;43.50
3136;DHT22;1578;47.658;9.922;2023-02-01T02:51:01;3.10;45.30
3136;DHT22;1578;47.658;9.922;2023-02-01T02:54:05;3.20;45.40
3136;DHT22;1578;47.658;9.922;2023-02-01T02:56:52;3.20;44.40
3136;DHT22;1578;47.658;9.922;2023-02-01T02:59:38;3.30;44.40
3136;DHT22;1578;47.658;9.922;2023-02-01T03:02:26;3.20;44.20
3136;DHT22;1578;47.658;9.922;2023-02-01T03:05:10;3.30;43.60
3136;DHT22;1578;47.658;9.922;2023-02-01T03:13:08;3.30;43.30
3136;DHT22;1578;47.658;9.922;2023-02-01T03:16:11;3.40;44.90
3136;DHT22;1578;47.658;9.922;2023-02-01T03:19:15;3.30;44.00
3136;DHT22;1578;47.658;9.922;2023-02-01T03:21:53;3.30;44.80
3136;DHT22;1578;47.658;9.922;2023-02-01T03:24:25;3.20;45.30
3136;DHT22;1578;47.658;9.922;2023-02-01T03:27:05;3.10;44.90
3136;DHT22;1578;47.658;9.922;2023-02-01T03:30:02;3.20;44.20
3136;DHT22;1578;47.658;9.922;2023-02-01T03:32:31;3.30;44.80
3136;DHT22;1578;47.658;9.922;2023-02-01T03:35:19;3.20;44.90
3136;DHT22;1578;47.658;9.922;2023-02-01T03:37:47;3.20;44.60
3136;DHT22;1578;47.658;9.922;2023-02-01T03:40:15;3.30;44.20
3136;DHT22;1578;47.658;9.922;2023-02-01T03:42:48;3.30;43.70
3136;DHT22;1578;47.658;9.922;2023-02-01T03:45:22;3.30;44.40
3136;DHT22;1578;47.658;9.922;2023-02-01T03:47:53;3.30;43.90
3136;DHT22;1578;47.658;9.922;2023-02-01T03:50:22;3.30;42.80
3136;DHT22;1578;47.658;9.922;2023-02-01T03:53:04;3.30;43.40
3136;DHT22;1578;47.658;9.922;2023-02-01T03:55:31;3.30;44.10
3136;DHT22;1578;47.658;9.922;2023-02-01T03:58:13;3.20;46.00
3136;DHT22;1578;47.658;9.922;2023-02-01T04:00:39;3.20;44.30
3136;DHT22;1578;47.658;9.922;2023-02-01T04:03:06;3.20;45.30
3136;DHT22;1578;47.658;9.922;2023-02-01T04:05:32;3.10;44.20
3136;DHT22;1578;47.658;9.922;2023-02-01T04:07:58;3.20;44.90
3136;DHT22;1578;47.658;9.922;2023-02-01T04:10:24;3.20;43.90
3136;DHT22;1578;47.658;9.922;2023-02-01T04:12:50;3.20;43.40
3136;DHT22;1578;47.658;9.922;2023-02-01T04:15:15;3.20;41.90
3136;DHT22;1578;47.658;9.922;2023-02-01T04:17:41;3.20;41.40
3136;DHT22;1578;47.658;9.922;2023-02-01T04:20:07;3.20;43.10
3136;DHT22;1578;47.658;9.922;2023-02-01T04:22:34;3.00;41.70
3136;DHT22;1578;47.658;9.922;2023-02-01T04:25:00;2.90;43.90
3136;DHT22;1578;47.658;9.922;2023-02-01T04:27:25;3.00;43.50
3136;DHT22;1578;47.658;9.922;2023-02-01T04:29:51;3.00;42.60
3136;DHT22;1578;47.658;9.922;2023-02-01T04:32:17;3.10;42.70
3136;DHT22;1578;47.658;9.922;2023-02-01T04:34:43;3.00;42.10
3136;DHT22;1578;47.658;9.922;2023-02-01T04:37:08;3.10;42.50
3136;DHT22;1578;47.658;9.922;2023-02-01T04:39:34;2.90;45.80
3136;DHT22;1578;47.658;9.922;2023-02-01T04:42:00;2.90;44.10
3136;DHT22;1578;47.658;9.922;2023-02-01T04:44:25;2.90;42.00
3136;DHT22;1578;47.658;9.922;2023-02-01T04:46:51;2.90;45.10
3136;DHT22;1578;47.658;9.922;2023-02-01T04:49:17;2.90;46.30
3136;DHT22;1578;47.658;9.922;2023-02-01T04:51:43;2.90;46.40
3136;DHT22;1578;47.658;9.922;2023-02-01T04:54:09;2.70;47.60
3136;DHT22;1578;47.658;9.922;2023-02-01T04:56:37;2.70;46.80
3136;DHT22;1578;47.658;9.922;2023-02-01T04:59:03;2.70;47.60
3136;DHT22;1578;47.658;9.922;2023-02-01T05:01:29;2.70;48.30
3136;DHT22;1578;47.658;9.922;2023-02-01T05:03:55;2.90;46.40
3136;DHT22;1578;47.658;9.922;2023-02-01T05:06:21;2.90;45.70
3136;DHT22;1578;47.658;9.922;2023-02-01T05:08:46;2.80;45.30
3136;DHT22;1578;47.658;9.922;2023-02-01T05:11:12;2.90;46.40
3136;DHT22;1578;47.658;9.922;2023-02-01T05:13:56;2.90;43.60
3136;DHT22;1578;47.658;9.922;2023-02-01T05:16:22;3.00;44.40
3136;DHT22;1578;47.658;9.922;2023-02-01T05:18:48;2.90;43.70
3136;DHT22;1578;47.658;9.922;2023-02-01T05:21:13;2.90;45.10
3136;DHT22;1578;47.658;9.922;2023-02-01T05:23:39;3.00;42.50
3136;DHT22;1578;47.658;9.922;2023-02-01T05:26:24;3.00;43.00
3136;DHT22;1578;47.658;9.922;2023-02-01T05:28:50;3.10;42.50
3136;DHT22;1578;47.658;9.922;2023-02-01T05:31:15;3.10;41.70
3136;DHT22;1578;47.658;9.922;2023-02-01T05:33:41;3.10;41.30
3136;DHT22;1578;47.658;9.922;2023-02-01T05:36:07;3.00;41.70
3136;DHT22;1578;47.658;9.922;2023-02-01T05:38:33;3.10;41.80
3136;DHT22;1578;47.658;9.922;2023-02-01T05:40:58;3.00;42.20
3136;DHT22;1578;47.658;9.922;2023-02-01T05:43:24;3.00;42.80
3136;DHT22;1578;47.658;9.922;2023-02-01T05:45:51;3.00;43.00
3136;DHT22;1578;47.658;9.922;2023-02-01T05:48:17;3.10;42.40
3136;DHT22;1578;47.658;9.922;2023-02-01T05:50:43;3.10;41.80
3136;DHT22;1578;47.658;9.922;2023-02-01T05:53:09;3.00;42.70
3136;DHT22;1578;47.658;9.922;2023-02-01T05:55:36;3.00;44.50
3136;DHT22;1578;47.658;9.922;2023-02-01T05:58:02;3.00;44.80
3136;DHT22;1578;47.658;9.922;2023-02-01T06:00:27;2.90;43.80
3136;DHT22;1578;47.658;9.922;2023-02-01T06:02:53;3.00;44.30
3136;DHT22;1578;47.658;9.922;2023-02-01T06:05:19;3.00;45.70
3136;DHT22;1578;47.658;9.922;2023-02-01T06:07:44;2.90;46.20
3136;DHT22;1578;47.658;9.922;2023-02-01T06:10:10;3.00;43.30
3136;DHT22;1578;47.658;9.922;2023-02-01T06:12:36;3.00;45.50
3136;DHT22;1578;47.658;9.922;2023-02-01T06:15:02;3.00;44.60
3136;DHT22;1578;47.658;9.922;2023-02-01T06:17:28;2.90;45.70
3136;DHT22;1578;47.658;9.922;2023-02-01T06:19:53;2.90;45.30
3136;DHT22;1578;47.658;9.922;2023-02-01T06:22:20;3.00;43.30
3136;DHT22;1578;47.658;9.922;2023-02-01T06:24:47;3.00;44.30
3136;DHT22;1578;47.658;9.922;2023-02-01T06:27:13;2.80;45.70
3136;DHT22;1578;47.658;9.922;2023-02-01T06:29:38;2.90;45.00
3136;DHT22;1578;47.658;9.922;2023-02-01T06:32:04;2.80;46.70
3136;DHT22;1578;47.658;9.922;2023-02-01T06:34:30;2.90;45.70
3136;DHT22;1578;47.658;9.922;2023-02-01T06:36:55;3.00;46.00
3136;DHT22;1578;47.658;9.922;2023-02-01T06:39:21;2.90;47.30
3136;DHT22;1578;47.658;9.922;2023-02-01T06:41:48;2.70;49.10
3136;DHT22;1578;47.658;9.922;2023-02-01T06:44:14;2.90;48.00
3136;DHT22;1578;47.658;9.922;2023-02-01T06:46:40;2.90;47.90
3136;DHT22;1578;47.658;9.922;2023-02-01T06:49:06;3.00;46.20
3136;DHT22;1578;47.658;9.922;2023-02-01T06:51:31;3.00;46.00
3136;DHT22;1578;47.658;9.922;2023-02-01T06:53:57;2.90;46.20
3136;DHT22;1578;47.658;9.922;2023-02-01T06:56:23;2.80;47.90
3136;DHT22;1578;47.658;9.922;2023-02-01T06:58:49;2.80;47.70
3136;DHT22;1578;47.658;9.922;2023-02-01T07:01:16;2.80;48.40
3136;DHT22;1578;47.658;9.922;2023-02-01T07:03:41;2.80;48.70
3136;DHT22;1578;47.658;9.922;2023-02-01T07:06:08;2.90;47.00
3136;DHT22;1578;47.658;9.922;2023-02-01T07:08:35;3.00;47.40
3136;DHT22;1578;47.658;9.922;2023-02-01T07:11:06;2.90;46.70
3136;DHT22;1578;47.658;9.922;2023-02-01T07:13:32;3.00;44.60
3136;DHT22;1578;47.658;9.922;2023-02-01T07:16:02;3.10;44.70
3136;DHT22;1578;47.658;9.922;2023-02-01T07:18:29;3.00;44.40
3136;DHT22;1578;47.658;9.922;2023-02-01T07:20:56;2.90;46.60
3136;DHT22;1578;47.658;9.922;2023-02-01T07:23:22;3.10;43.80
3136;DHT22;1578;47.658;9.922;2023-02-01T07:25:48;3.10;45.40
3136;DHT22;1578;47.658;9.922;2023-02-01T07:28:13;3.10;43.70
3136;DHT22;1578;47.658;9.922;2023-02-01T07:30:39;3.00;45.20
3136;DHT22;1578;47.658;9.922;2023-02-01T07:33:06;3.00;46.10
3136;DHT22;1578;47.658;9.922;2023-02-01T07:35:31;3.00;44.00
3136;DHT22;1578;47.658;9.922;2023-02-01T07:37:57;3.00;46.20
3136;DHT22;1578;47.658;9.922;2023-02-01T07:40:23;3.00;46.40
3136;DHT22;1578;47.658;9.922;2023-02-01T07:42:54;3.00;48.10
3136;DHT22;1578;47.658;9.922;2023-02-01T07:45:21;3.00;48.30
3136;DHT22;1578;47.658;9.922;2023-02-01T07:47:47;3.00;50.20
3136;DHT22;1578;47.658;9.922;2023-02-01T07:50:12;3.00;52.50
3136;DHT22;1578;47.658;9.922;2023-02-01T07:52:38;2.90;54.10
3136;DHT22;1578;47.658;9.922;2023-02-01T07:55:05;2.90;54.30
3136;DHT22;1578;47.658;9.922;2023-02-01T07:57:31;3.00;53.00
3136;DHT22;1578;47.658;9.922;2023-02-01T07:59:57;3.10;53.40
3136;DHT22;1578;47.658;9.922;2023-02-01T08:02:41;3.00;53.80
3136;DHT22;1578;47.658;9.922;2023-02-01T08:05:07;3.00;55.50
3136;DHT22;1578;47.658;9.922;2023-02-01T08:07:32;2.90;57.90
3136;DHT22;1578;47.658;9.922;2023-02-01T08:09:58;3.00;59.90
3136;DHT22;1578;47.658;9.922;2023-02-01T08:12:25;2.90;62.20
3136;DHT22;1578;47.658;9.922;2023-02-01T08:14:52;2.90;63.50
3136;DHT22;1578;47.658;9.922;2023-02-01T08:17:19;2.90;65.80
3136;DHT22;1578;47.658;9.922;2023-02-01T08:19:44;2.90;67.70
3136;DHT22;1578;47.658;9.922;2023-02-01T08:22:10;2.80;67.60
3136;DHT22;1578;47.658;9.922;2023-02-01T08:24:36;2.80;69.50
3136;DHT22;1578;47.658;9.922;2023-02-01T08:27:04;2.90;67.20
3136;DHT22;1578;47.658;9.922;2023-02-01T08:29:30;2.90;67.40
3136;DHT22;1578;47.658;9.922;2023-02-01T08:31:55;2.80;68.20
3136;DHT22;1578;47.658;9.922;2023-02-01T08:34:21;2.80;68.90
3136;DHT22;1578;47.658;9.922;2023-02-01T08:36:47;2.80;67.50
3136;DHT22;1578;47.658;9.922;2023-02-01T08:39:13;2.70;67.00
3136;DHT22;1578;47.658;9.922;2023-02-01T08:41:38;2.70;67.70
3136;DHT22;1578;47.658;9.922;2023-02-01T08:44:05;2.80;65.60
3136;DHT22;1578;47.658;9.922;2023-02-01T08:46:31;2.70;65.30
3136;DHT22;1578;47.658;9.922;2023-02-01T08:48:57;2.70;65.90
3136;DHT22;1578;47.658;9.922;2023-02-01T08:51:23;2.80;64.30
3136;DHT22;1578;47.658;9.922;2023-02-01T08:53:49;2.80;62.30
3136;DHT22;1578;47.658;9.922;2023-02-01T08:56:16;2.80;62.00
3136;DHT22;1578;47.658;9.922;2023-02-01T08:58:42;2.80;59.80
3136;DHT22;1578;47.658;9.922;2023-02-01T09:01:13;2.90;60.80
3136;DHT22;1578;47.658;9.922;2023-02-01T09:03:39;2.90;60.40
3136;DHT22;1578;47.658;9.922;2023-02-01T09:06:07;2.90;59.80
3136;DHT22;1578;47.658;9.922;2023-02-01T09:08:34;2.90;60.00
3136;DHT22;1578;47.658;9.922;2023-02-01T09:11:01;2.80;61.50
3136;DHT22;1578;47.658;9.922;2023-02-01T09:13:27;2.90;59.90
3136;DHT22;1578;47.658;9.922;2023-02-01T09:15:53;2.80;60.80
3136;DHT22;1578;47.658;9.922;2023-02-01T09:18:19;2.80;59.90
3136;DHT22;1578;47.658;9.922;2023-02-01T09:20:44;2.90;59.80
3136;DHT22;1578;47.658;9.922;2023-02-01T09:23:10;2.90;59.20
3136;DHT22;1578;47.658;9.922;2023-02-01T09:25:39;3.00;59.50
3136;DHT22;1578;47.658;9.922;2023-02-01T09:28:05;3.00;57.60
3136;DHT22;1578;47.658;9.922;2023-02-01T09:30:35;3.10;58.60
3136;DHT22;1578;47.658;9.922;2023-02-01T09:33:00;3.00;59.50
3136;DHT22;1578;47.658;9.922;2023-02-01T09:35:26;3.00;59.40
3136;DHT22;1578;47.658;9.922;2023-02-01T09:37:53;3.10;60.00
3136;DHT22;1578;47.658;9.922;2023-02-01T09:40:19;3.30;57.90
3136;DHT22;1578;47.658;9.922;2023-02-01T09:43:00;3.20;58.10
3136;DHT22;1578;47.658;9.922;2023-02-01T09:45:50;3.30;57.40
3136;DHT22;1578;47.658;9.922;2023-02-01T09:48:19;3.30;55.10
3136;DHT22;1578;47.658;9.922;2023-02-01T09:50:49;3.40;56.70
3136;DHT22;1578;47.658;9.922;2023-02-01T09:55:43;3.30;56.50
3136;DHT22;1578;47.658;9.922;2023-02-01T10:00:52;3.50;54.40
3136;DHT22;1578;47.658;9.922;2023-02-01T10:03:18;3.60;54.90
3136;DHT22;1578;47.658;9.922;2023-02-01T10:05:56;3.60;55.50
3136;DHT22;1578;47.658;9.922;2023-02-01T10:11:24;3.60;55.10
3136;DHT22;1578;47.658;9.922;2023-02-01T10:14:04;3.70;54.60
3136;DHT22;1578;47.658;9.922;2023-02-01T10:16:41;3.80;54.60
3136;DHT22;1578;47.658;9.922;2023-02-01T10:22:08;3.90;54.90
3136;DHT22;1578;47.658;9.922;2023-02-01T10:25:28;4.10;52.20
3136;DHT22;1578;47.658;9.922;2023-02-01T10:27:37;4.10;53.60
3136;DHT22;1578;47.658;9.922;2023-02-01T10:32:39;4.10;51.90
3136;DHT22;1578;47.658;9.922;2023-02-01T10:35:16;4.10;54.30
3136;DHT22;1578;47.658;9.922;2023-02-01T10:37:43;4.30;52.80
3136;DHT22;1578;47.658;9.922;2023-02-01T10:40:22;4.40;52.10
3136;DHT22;1578;47.658;9.922;2023-02-01T10:42:56;4.50;50.90
3136;DHT22;1578;47.658;9.922;2023-02-01T10:45:26;4.50;49.50
3136;DHT22;1578;47.658;9.922;2023-02-01T10:47:53;4.50;52.20
3136;DHT22;1578;47.658;9.922;2023-02-01T10:50:38;4.60;51.50
3136;DHT22;1578;47.658;9.922;2023-02-01T10:53:17;4.60;51.30
3136;DHT22;1578;47.658;9.922;2023-02-01T10:55:50;4.60;49.10
3136;DHT22;1578;47.658;9.922;2023-02-01T10:58:29;4.60;50.00
3136;DHT22;1578;47.658;9.922;2023-02-01T11:01:21;4.60;49.20
3136;DHT22;1578;47.658;9.922;2023-02-01T11:03:53;4.40;49.60
3136;DHT22;1578;47.658;9.922;2023-02-01T11:06:28;4.40;50.00
3136;DHT22;1578;47.658;9.922;2023-02-01T11:09:19;4.40;51.00
3136;DHT22;1578;47.658;9.922;2023-02-01T11:14:18;4.50;49.50
3136;DHT22;1578;47.658;9.922;2023-02-01T11:17:15;4.50;49.80
3136;DHT22;1578;47.658;9.922;2023-02-01T11:19:38;4.50;50.80
3136;DHT22;1578;47.658;9.922;2023-02-01T11:22:05;4.60;48.70
3136;DHT22;1578;47.658;9.922;2023-02-01T11:24:33;4.60;49.80
3136;DHT22;1578;47.658;9.922;2023-02-01T11:27:02;4.60;48.90
3136;DHT22;1578;47.658;9.922;2023-02-01T11:29:41;4.70;50.00
3136;DHT22;1578;47.658;9.922;2023-02-01T11:32:08;4.80;49.40
3136;DHT22;1578;47.658;9.922;2023-02-01T11:34:44;4.60;48.00
3136;DHT22;1578;47.658;9.922;2023-02-01T11:37:30;4.60;49.90
3136;DHT22;1578;47.658;9.922;2023-02-01T11:39:58;4.60;49.00
3136;DHT22;1578;47.658;9.922;2023-02-01T11:42:26;4.70;47.80
3136;DHT22;1578;47.658;9.922;2023-02-01T11:45:20;4.70;47.70
3136;DHT22;1578;47.658;9.922;2023-02-01T11:47:46;4.60;49.90
3136;DHT22;1578;47.658;9.922;2023-02-01T11:50:19;4.60;50.90
3136;DHT22;1578;47.658;9.922;2023-02-01T11:53:06;4.80;47.40
3136;DHT22;1578;47.658;9.922;2023-02-01T11:55:52;4.90;48.00
3136;DHT22;1578;47.658;9.922;2023-02-01T12:02:02;5.20;46.30
3136;DHT22;1578;47.658;9.922;2023-02-01T12:04:45;5.10;46.90
3136;DHT22;1578;47.658;9.922;2023-02-01T12:13:10;4.90;44.90
3136;DHT22;1578;47.658;9.922;2023-02-01T12:16:08;4.80;46.20
3136;DHT22;1578;47.658;9.922;2023-02-01T12:19:18;4.70;46.10
3136;DHT22;1578;47.658;9.922;2023-02-01T12:22:00;4.70;45.70
3136;DHT22;1578;47.658;9.922;2023-02-01T12:24:43;4.60;45.70
3136;DHT22;1578;47.658;9.922;2023-02-01T12:27:29;4.50;47.60
3136;DHT22;1578;47.658;9.922;2023-02-01T12:30:19;4.50;46.60
3136;DHT22;1578;47.658;9.922;2023-02-01T12:33:03;4.50;46.80
3136;DHT22;1578;47.658;9.922;2023-02-01T12:35:59;4.40;45.10
3136;DHT22;1578;47.658;9.922;2023-02-01T12:47:11;4.40;46.80
3136;DHT22;1578;47.658;9.922;2023-02-01T12:49:44;4.40;45.90
3136;DHT22;1578;47.658;9.922;2023-02-01T12:52:19;4.40;46.60
3136;DHT22;1578;47.658;9.922;2023-02-01T12:57:36;4.60;49.20
3136;DHT22;1578;47.658;9.922;2023-02-01T13:05:36;4.90;46.90
3136;DHT22;1578;47.658;9.922;2023-02-01T13:08:10;4.90;46.00
3136;DHT22;1578;47.658;9.922;2023-02-01T13:10:43;4.80;45.90
3136;DHT22;1578;47.658;9.922;2023-02-01T13:16:12;4.80;44.50
3136;DHT22;1578;47.658;9.922;2023-02-01T13:18:36;4.80;45.40
3136;DHT22;1578;47.658;9.922;2023-02-01T13:21:31;4.70;43.50
3136;DHT22;1578;47.658;9.922;2023-02-01T13:23:57;4.80;43.80
3136;DHT22;1578;47.658;9.922;2023-02-01T13:26:23;4.80;44.70
3136;DHT22;1578;47.658;9.922;2023-02-01T13:37:10;4.60;42.60
3136;DHT22;1578;47.658;9.922;2023-02-01T13:42:30;4.60;43.00
3136;DHT22;1578;47.658;9.922;2023-02-01T13:45:15;4.70;41.90
3136;DHT22;1578;47.658;9.922;2023-02-01T13:47:43;4.60;41.50
3136;DHT22;1578;47.658;9.922;2023-02-01T13:50:24;4.60;42.70
3136;DHT22;1578;47.658;9.922;2023-02-01T13:53:04;4.60;43.20
3136;DHT22;1578;47.658;9.922;2023-02-01T13:55:39;4.70;42.30
3136;DHT22;1578;47.658;9.922;2023-02-01T13:58:33;4.80;41.30
3136;DHT22;1578;47.658;9.922;2023-02-01T14:04:06;4.70;41.10
3136;DHT22;1578;47.658;9.922;2023-02-01T14:06:53;4.60;42.10
3136;DHT22;1578;47.658;9.922;2023-02-01T14:09:32;4.60;41.00
3136;DHT22;1578;47.658;9.922;2023-02-01T14:15:27;4.60;41.80
3136;DHT22;1578;47.658;9.922;2023-02-01T14:17:54;4.60;42.10
3136;DHT22;1578;47.658;9.922;2023-02-01T14:23:04;4.60;42.10
3136;DHT22;1578;47.658;9.922;2023-02-01T14:25:36;4.60;42.70
3136;DHT22;1578;47.658;9.922;2023-02-01T14:28:22;4.50;42.30
3136;DHT22;1578;47.658;9.922;2023-02-01T14:30:49;4.40;43.80
3136;DHT22;1578;47.658;9.922;2023-02-01T14:33:21;4.40;43.40
3136;DHT22;1578;47.658;9.922;2023-02-01T14:36:08;4.30;43.90
3136;DHT22;1578;47.658;9.922;2023-02-01T14:38:36;4.40;43.30
3136;DHT22;1578;47.658;9.922;2023-02-01T14:41:34;4.30;43.90
3136;DHT22;1578;47.658;9.922;2023-02-01T14:47:04;4.30;42.30
3136;DHT22;1578;47.658;9.922;2023-02-01T14:49:37;4.30;42.70
3136;DHT22;1578;47.658;9.922;2023-02-01T14:52:09;4.30;42.80
3136;DHT22;1578;47.658;9.922;2023-02-01T14:54:37;4.30;42.80
3136;DHT22;1578;47.658;9.922;2023-02-01T14:57:05;4.30;42.70
3136;DHT22;1578;47.658;9.922;2023-02-01T14:59:34;4.20;43.10
3136;DHT22;1578;47.658;9.922;2023-02-01T15:02:02;4.30;42.40
3136;DHT22;1578;47.658;9.922;2023-02-01T15:04:41;4.40;40.70
3136;DHT22;1578;47.658;9.922;2023-02-01T15:07:12;4.30;42.10
3136;DHT22;1578;47.658;9.922;2023-02-01T15:09:47;4.40;40.30
3136;DHT22;1578;47.658;9.922;2023-02-01T15:12:18;4.40;39.90
3136;DHT22;1578;47.658;9.922;2023-02-01T15:17:34;4.40;38.10
3136;DHT22;1578;47.658;9.922;2023-02-01T15:20:30;4.30;38.10
3136;DHT22;1578;47.658;9.922;2023-02-01T15:23:01;4.30;36.90
3136;DHT22;1578;47.658;9.922;2023-02-01T15:25:35;4.30;38.00
3136;DHT22;1578;47.658;9.922;2023-02-01T15:28:02;4.40;39.20
3136;DHT22;1578;47.658;9.922;2023-02-01T15:30:31;4.30;38.90
3136;DHT22;1578;47.658;9.922;2023-02-01T15:33:27;4.30;38.60
3136;DHT22;1578;47.658;9.922;2023-02-01T15:36:09;4.30;38.10
3136;DHT22;1578;47.658;9.922;2023-02-01T15:38:42;4.40;38.10
3136;DHT22;1578;47.658;9.922;2023-02-01T15:41:20;4.40;38.90
3136;DHT22;1578;47.658;9.922;2023-02-01T15:46:44;4.30;39.00
3136;DHT22;1578;47.658;9.922;2023-02-01T15:49:31;4.30;38.50
3136;DHT22;1578;47.658;9.922;2023-02-01T15:51:59;4.20;39.40
3136;DHT22;1578;47.658;9.922;2023-02-01T15:54:46;4.20;38.00
3136;DHT22;1578;47.658;9.922;2023-02-01T15:57:23;4.20;37.80
3136;DHT22;1578;47.658;9.922;2023-02-01T16:00:00;4.20;38.90
3136;DHT22;1578;47.658;9.922;2023-02-01T16:02:36;4.20;38.40
3136;DHT22;1578;47.658;9.922;2023-02-01T16:05:04;4.30;35.80
3136;DHT22;1578;47.658;9.922;2023-02-01T16:07:35;4.20;36.10
3136;DHT22;1578;47.658;9.922;2023-02-01T16:10:17;4.20;36.70
3136;DHT22;1578;47.658;9.922;2023-02-01T16:12:47;4.20;37.30
3136;DHT22;1578;47.658;9.922;2023-02-01T16:15:13;4.30;34.40
3136;DHT22;1578;47.658;9.922;2023-02-01T16:17:39;4.30;33.20
3136;DHT22;1578;47.658;9.922;2023-02-01T16:20:05;4.30;35.00
3136;DHT22;1578;47.658;9.922;2023-02-01T16:22:30;4.40;33.30
3136;DHT22;1578;47.658;9.922;2023-02-01T16:24:56;4.30;33.20
3136;DHT22;1578;47.658;9.922;2023-02-01T16:27:22;4.40;33.30
3136;DHT22;1578;47.658;9.922;2023-02-01T16:29:48;4.20;34.10
3136;DHT22;1578;47.658;9.922;2023-02-01T16:32:21;4.20;34.50
3136;DHT22;1578;47.658;9.922;2023-02-01T16:34:48;4.30;35.00
3136;DHT22;1578;47.658;9.922;2023-02-01T16:37:18;4.30;35.50
3136;DHT22;1578;47.658;9.922;2023-02-01T16:39:44;4.30;35.50
3136;DHT22;1578;47.658;9.922;2023-02-01T16:42:14;4.20;36.20
3136;DHT22;1578;47.658;9.922;2023-02-01T16:44:40;4.20;34.80
3136;DHT22;1578;47.658;9.922;2023-02-01T16:47:18;4.20;35.50
3136;DHT22;1578;47.658;9.922;2023-02-01T16:49:46;4.30;36.30
3136;DHT22;1578;47.658;9.922;2023-02-01T16:52:26;4.30;34.40
3136;DHT22;1578;47.658;9.922;2023-02-01T16:54:52;4.20;35.50
3136;DHT22;1578;47.658;9.922;2023-02-01T16:57:19;4.20;35.40
3136;DHT22;1578;47.658;9.922;2023-02-01T16:59:48;4.00;35.90
3136;DHT22;1578;47.658;9.922;2023-02-01T17:02:18;4.00;37.30
3136;DHT22;1578;47.658;9.922;2023-02-01T17:04:46;4.00;37.80
3136;DHT22;1578;47.658;9.922;2023-02-01T17:07:18;4.00;35.60
3136;DHT22;1578;47.658;9.922;2023-02-01T17:09:54;4.10;36.30
3136;DHT22;1578;47.658;9.922;2023-02-01T17:12:33;4.10;35.70
3136;DHT22;1578;47.658;9.922;2023-02-01T17:14:59;4.10;34.20
3136;DHT22;1578;47.658;9.922;2023-02-01T17:17:37;4.10;35.00
3136;DHT22;1578;47.658;9.922;2023-02-01T17:20:04;4.10;35.00
3136;DHT22;1578;47.658;9.922;2023-02-01T17:22:31;4.10;35.50
3136;DHT22;1578;47.658;9.922;2023-02-01T17:24:58;4.00;36.50
3136;DHT22;1578;47.658;9.922;2023-02-01T17:27:24;4.10;33.30
3136;DHT22;1578;47.658;9.922;2023-02-01T17:29:49;4.10;33.30
3136;DHT22;1578;47.658;9.922;2023-02-01T17:32:22;4.10;34.20
3136;DHT22;1578;47.658;9.922;2023-02-01T17:34:50;4.10;33.00
3136;DHT22;1578;47.658;9.922;2023-02-01T17:37:31;4.20;33.10
3136;DHT22;1578;47.658;9.922;2023-02-01T17:39:57;4.10;33.00
3136;DHT22;1578;47.658;9.922;2023-02-01T17:42:26;4.00;35.90
3136;DHT22;1578;47.658;9.922;2023-02-01T17:44:57;4.10;33.10
3136;DHT22;1578;47.658;9.922;2023-02-01T17:47:23;4.00;35.50
3136;DHT22;1578;47.658;9.922;2023-02-01T17:49:49;4.10;32.70
3136;DHT22;1578;47.658;9.922;2023-02-01T17:52:22;4.10;32.70
3136;DHT22;1578;47.658;9.922;2023-02-01T17:54:48;4.10;34.50
3136;DHT22;1578;47.658;9.922;2023-02-01T17:57:17;4.10;34.70
3136;DHT22;1578;47.658;9.922;2023-02-01T17:59:43;4.10;33.10
3136;DHT22;1578;47.658;9.922;2023-02-01T18:02:22;4.10;33.40
3136;DHT22;1578;47.658;9.922;2023-02-01T18:04:49;4.10;33.80
3136;DHT22;1578;47.658;9.922;2023-02-01T18:07:15;4.20;34.30
3136;DHT22;1578;47.658;9.922;2023-02-01T18:09:41;4.10;34.10
3136;DHT22;1578;47.658;9.922;2023-02-01T18:12:19;4.10;37.00
3136;DHT22;1578;47.658;9.922;2023-02-01T18:14:46;4.10;35.20
3136;DHT22;1578;47.658;9.922;2023-02-01T18:17:11;4.10;34.20
3136;DHT22;1578;47.658;9.922;2023-02-01T18:19:37;4.10;34.70